createdAt,value
2019-02-16T00:00:09.379Z,-928.55
2019-02-16T00:01:09.605Z,-929.65
2019-02-16T00:02:09.831Z,-929.86
2019-02-16T00:03:10.104Z,-928.12
2019-02-16T00:04:10.293Z,-928.18
2019-02-16T00:05:11.383Z,-931.81
2019-02-16T00:06:10.744Z,-935.44
2019-02-16T00:07:11.072Z,-928.11
2019-02-16T00:08:12.384Z,-930.77
2019-02-16T00:09:11.876Z,-929.54
2019-02-16T00:10:12.378Z,-931.68
2019-02-16T00:11:11.880Z,-931.66
2019-02-16T00:12:12.878Z,-933.88
2019-02-16T00:13:12.383Z,-933.14
2019-02-16T00:14:12.590Z,-933.34
2019-02-16T00:15:12.877Z,-922.21
2019-02-16T00:16:13.026Z,-929.89
2019-02-16T00:17:13.281Z,-928.94
2019-02-16T00:18:13.880Z,-929.71
2019-02-16T00:19:13.759Z,-928.64
2019-02-16T00:20:13.989Z,-927.63
2019-02-16T00:21:14.378Z,-931.57
2019-02-16T00:22:14.438Z,-937.01
2019-02-16T00:23:14.733Z,-936.48
2019-02-16T00:24:14.908Z,-931.79
2019-02-16T00:25:15.137Z,-928.47
2019-02-16T00:26:15.379Z,-936.84
2019-02-16T00:27:15.597Z,-929.04
2019-02-16T00:28:15.847Z,-933.44
2019-02-16T00:29:16.056Z,-927.70
2019-02-16T00:30:16.303Z,-931.49
2019-02-16T00:31:16.561Z,-932.75
2019-02-16T00:32:16.887Z,-932.75
2019-02-16T00:33:17.006Z,-937.08
2019-02-16T00:34:17.224Z,-931.45
2019-02-16T00:35:17.454Z,-932.22
2019-02-16T00:36:17.702Z,-928.46
2019-02-16T00:37:17.919Z,-933.27
2019-02-16T00:38:18.173Z,-936.35
2019-02-16T00:39:18.365Z,-934.76
2019-02-16T00:40:18.673Z,-931.16
2019-02-16T00:41:18.867Z,-934.10
2019-02-16T00:42:19.078Z,-931.48
2019-02-16T00:43:19.338Z,-933.85
2019-02-16T00:44:19.526Z,-938.26
2019-02-16T00:45:19.762Z,-936.17
2019-02-16T00:46:20.018Z,-936.81
2019-02-16T00:47:20.231Z,-932.27
2019-02-16T00:48:20.560Z,-932.90
2019-02-16T00:49:20.662Z,-931.22
2019-02-16T00:50:20.910Z,-931.72
2019-02-16T00:51:21.171Z,-935.65
2019-02-16T00:52:21.389Z,-933.12
2019-02-16T00:53:21.641Z,-935.60
2019-02-16T00:54:21.844Z,-930.44
2019-02-16T00:55:22.054Z,-929.66
2019-02-16T00:56:22.345Z,-935.30
2019-02-16T00:57:22.880Z,-931.94
2019-02-16T00:58:22.780Z,-937.06
2019-02-16T00:59:22.982Z,-933.95
2019-02-16T01:00:23.207Z,-935.56
2019-02-16T01:01:23.441Z,-932.88
2019-02-16T01:02:23.675Z,-937.46
2019-02-16T01:03:23.956Z,-941.66
2019-02-16T01:04:24.181Z,-940.14
2019-02-16T01:05:24.481Z,-933.00
2019-02-16T01:06:24.634Z,-934.17
2019-02-16T01:07:24.827Z,-939.33
2019-02-16T01:08:25.106Z,-934.63
2019-02-16T01:09:25.287Z,-939.23
2019-02-16T01:10:25.532Z,-934.47
2019-02-16T01:11:25.785Z,-943.43
2019-02-16T01:12:26.005Z,-943.87
2019-02-16T01:13:26.309Z,-937.20
2019-02-16T01:14:26.451Z,-937.40
2019-02-16T01:15:26.687Z,-938.57
2019-02-16T01:16:26.940Z,-940.26
2019-02-16T01:17:27.128Z,-941.32
2019-02-16T01:18:27.377Z,-935.57
2019-02-16T01:19:27.607Z,-886.65
2019-02-16T01:20:27.847Z,-889.49
2019-02-16T01:21:28.229Z,-888.96
2019-02-16T01:22:28.299Z,-889.56
2019-02-16T01:23:28.554Z,-885.54
2019-02-16T01:24:29.018Z,-895.00
2019-02-16T01:25:28.998Z,-890.03
2019-02-16T01:26:29.245Z,-888.70
2019-02-16T01:27:29.458Z,-887.72
2019-02-16T01:28:29.706Z,-887.78
2019-02-16T01:29:29.959Z,-893.50
2019-02-16T01:30:30.132Z,-893.21
2019-02-16T01:31:30.382Z,-891.83
2019-02-16T01:32:30.595Z,-887.15
2019-02-16T01:33:30.843Z,-890.75
2019-02-16T01:34:31.058Z,-889.45
2019-02-16T01:35:31.274Z,-892.80
2019-02-16T01:36:31.525Z,-892.07
2019-02-16T01:37:31.806Z,-893.08
2019-02-16T01:38:31.961Z,-888.17
2019-02-16T01:39:32.208Z,-893.25
2019-02-16T01:40:32.410Z,-894.93
2019-02-16T01:41:32.676Z,-892.13
2019-02-16T01:42:32.903Z,-888.10
2019-02-16T01:43:33.148Z,-890.07
2019-02-16T01:44:33.380Z,-893.81
2019-02-16T01:45:33.638Z,-894.34
2019-02-16T01:46:33.894Z,-898.26
2019-02-16T01:47:34.058Z,-887.24
2019-02-16T01:48:34.298Z,-892.72
2019-02-16T01:49:34.537Z,-890.78
2019-02-16T01:50:34.751Z,-890.98
2019-02-16T01:51:35.000Z,-896.10
2019-02-16T01:52:35.196Z,-894.09
2019-02-16T01:53:35.451Z,-894.12
2019-02-16T01:54:35.804Z,-888.19
2019-02-16T01:55:35.896Z,-886.61
2019-02-16T01:56:36.129Z,-891.45
2019-02-16T01:57:36.352Z,-888.26
2019-02-16T01:58:36.604Z,-888.89
2019-02-16T01:59:36.845Z,-892.90
2019-02-16T02:00:37.057Z,-892.67
2019-02-16T02:01:37.312Z,-893.19
2019-02-16T02:02:37.584Z,-892.96
2019-02-16T02:03:37.758Z,-893.05
2019-02-16T02:04:38.002Z,-893.61
2019-02-16T02:05:38.201Z,-888.41
2019-02-16T02:06:38.453Z,-894.14
2019-02-16T02:07:38.659Z,-887.41
2019-02-16T02:08:38.874Z,-893.37
2019-02-16T02:09:39.144Z,-892.51
2019-02-16T02:10:39.402Z,-889.29
2019-02-16T02:11:39.582Z,-891.88
2019-02-16T02:12:39.799Z,-897.46
2019-02-16T02:13:40.048Z,-895.99
2019-02-16T02:14:40.263Z,-899.52
2019-02-16T02:15:40.490Z,-889.68
2019-02-16T02:16:40.715Z,-891.60
2019-02-16T02:17:40.946Z,-893.30
2019-02-16T02:18:41.247Z,-893.29
2019-02-16T02:19:41.422Z,-899.68
2019-02-16T02:20:41.634Z,-897.76
2019-02-16T02:21:41.878Z,-899.78
2019-02-16T02:22:42.126Z,-896.95
2019-02-16T02:23:42.356Z,-898.90
2019-02-16T02:24:42.618Z,-900.35
2019-02-16T02:25:42.815Z,-897.13
2019-02-16T02:26:43.044Z,-905.17
2019-02-16T02:27:43.394Z,-895.32
2019-02-16T02:28:43.534Z,-900.12
2019-02-16T02:29:43.768Z,-894.51
2019-02-16T02:30:43.966Z,-899.28
2019-02-16T02:31:44.202Z,-896.30
2019-02-16T02:32:44.463Z,-889.29
2019-02-16T02:33:44.714Z,-892.98
2019-02-16T02:34:45.389Z,-898.99
2019-02-16T02:35:45.229Z,-892.78
2019-02-16T02:36:45.361Z,-891.71
2019-02-16T02:37:45.621Z,-892.07
2019-02-16T02:38:45.846Z,-896.99
2019-02-16T02:39:46.111Z,-897.98
2019-02-16T02:40:46.307Z,-896.02
2019-02-16T02:41:46.531Z,-890.80
2019-02-16T02:42:46.782Z,-892.57
2019-02-16T02:43:47.126Z,-897.69
2019-02-16T02:44:47.252Z,-895.97
2019-02-16T02:45:47.469Z,-893.49
2019-02-16T02:46:47.692Z,-897.23
2019-02-16T02:47:47.935Z,-890.36
2019-02-16T02:48:48.154Z,-896.09
2019-02-16T02:49:48.441Z,-892.53
2019-02-16T02:50:48.639Z,-894.94
2019-02-16T02:51:52.319Z,-897.17
2019-02-16T02:52:49.087Z,-901.91
2019-02-16T02:53:49.294Z,-896.03
2019-02-16T02:54:49.567Z,-898.73
2019-02-16T02:55:49.757Z,-896.14
2019-02-16T02:56:49.997Z,-897.31
2019-02-16T02:57:50.252Z,-900.64
2019-02-16T02:58:50.470Z,-900.47
2019-02-16T02:59:50.757Z,-898.83
2019-02-16T03:00:50.970Z,-894.79
2019-02-16T03:01:51.160Z,-895.14
2019-02-16T03:02:51.636Z,-897.89
2019-02-16T03:03:51.618Z,-899.41
2019-02-16T03:04:51.877Z,-897.23
2019-02-16T03:05:52.061Z,-895.97
2019-02-16T03:06:52.308Z,-892.32
2019-02-16T03:07:52.574Z,-896.41
2019-02-16T03:08:52.891Z,-895.93
2019-02-16T03:09:53.009Z,-945.12
2019-02-16T03:10:53.236Z,-942.89
2019-02-16T03:11:53.476Z,-948.00
2019-02-16T03:12:53.718Z,-949.36
2019-02-16T03:13:54.090Z,-947.61
2019-02-16T03:14:54.190Z,-953.75
2019-02-16T03:15:54.376Z,-950.81
2019-02-16T03:16:54.759Z,-945.98
2019-02-16T03:17:54.875Z,-953.94
2019-02-16T03:18:55.095Z,-950.61
2019-02-16T03:19:55.351Z,-951.80
2019-02-16T03:20:55.536Z,-949.67
2019-02-16T03:22:02.526Z,-956.03
2019-02-16T03:22:57.037Z,-951.29
2019-02-16T03:23:56.259Z,-952.73
2019-02-16T03:24:56.555Z,-953.97
2019-02-16T03:25:56.703Z,-952.22
2019-02-16T03:26:56.919Z,-951.60
2019-02-16T03:27:57.187Z,-950.90
2019-02-16T03:28:57.397Z,-956.45
2019-02-16T03:29:57.640Z,-953.20
2019-02-16T03:30:57.877Z,-953.89
2019-02-16T03:31:58.115Z,-951.65
2019-02-16T03:32:58.417Z,-951.15
2019-02-16T03:33:58.554Z,-947.19
2019-02-16T03:34:58.791Z,-956.56
2019-02-16T03:35:59.029Z,-955.19
2019-02-16T03:36:59.246Z,-950.03
2019-02-16T03:37:59.496Z,-950.75
2019-02-16T03:38:59.698Z,-953.28
2019-02-16T03:39:59.980Z,-947.12
2019-02-16T03:41:00.233Z,-949.94
2019-02-16T03:42:00.464Z,-953.41
2019-02-16T03:43:00.654Z,-953.22
2019-02-16T03:44:00.850Z,-951.39
2019-02-16T03:45:01.119Z,-949.99
2019-02-16T03:46:01.343Z,-953.84
2019-02-16T03:47:01.553Z,-955.24
2019-02-16T03:48:01.801Z,-956.14
2019-02-16T03:49:02.024Z,-956.01
2019-02-16T03:50:02.551Z,-955.29
2019-02-16T03:51:02.498Z,-958.96
2019-02-16T03:52:12.687Z,-948.11
2019-02-16T03:53:03.954Z,-948.23
2019-02-16T03:54:03.161Z,-954.02
2019-02-16T03:55:03.394Z,-947.46
2019-02-16T03:56:03.644Z,-953.01
2019-02-16T03:57:03.865Z,-953.79
2019-02-16T03:58:04.221Z,-952.93
2019-02-16T03:59:04.316Z,-953.55
2019-02-16T04:00:04.550Z,-959.18
2019-02-16T04:01:04.794Z,-952.74
2019-02-16T04:02:05.007Z,-953.56
2019-02-16T04:03:05.255Z,-951.83
2019-02-16T04:04:05.474Z,-951.79
2019-02-16T04:05:05.719Z,-953.73
2019-02-16T04:06:05.958Z,-950.68
2019-02-16T04:07:06.140Z,-954.96
2019-02-16T04:08:06.397Z,-954.05
2019-02-16T04:09:06.609Z,-950.63
2019-02-16T04:10:06.859Z,-954.18
2019-02-16T04:11:07.093Z,-956.49
2019-02-16T04:12:07.365Z,-957.03
2019-02-16T04:13:07.546Z,-949.12
2019-02-16T04:14:07.844Z,-950.54
2019-02-16T04:15:08.014Z,-958.02
2019-02-16T04:16:08.232Z,-952.81
2019-02-16T04:17:08.424Z,-953.11
2019-02-16T04:18:08.674Z,-952.62
2019-02-16T04:19:08.903Z,-954.12
2019-02-16T04:20:09.179Z,-955.50
2019-02-16T04:21:09.380Z,-949.41
2019-02-16T04:22:09.614Z,-950.24
2019-02-16T04:23:09.896Z,-953.25
2019-02-16T04:24:10.061Z,-954.87
2019-02-16T04:25:10.301Z,-950.84
2019-02-16T04:26:10.536Z,-953.48
2019-02-16T04:27:10.742Z,-952.87
2019-02-16T04:28:10.976Z,-956.67
2019-02-16T04:29:11.187Z,-950.99
2019-02-16T04:30:11.467Z,-953.22
2019-02-16T04:31:11.820Z,-953.27
2019-02-16T04:32:11.923Z,-948.57
2019-02-16T04:33:12.140Z,-955.32
2019-02-16T04:34:12.384Z,-953.10
2019-02-16T04:35:12.938Z,-954.13
2019-02-16T04:36:12.890Z,-953.16
2019-02-16T04:37:13.099Z,-955.70
2019-02-16T04:38:13.333Z,-948.00
2019-02-16T04:39:13.653Z,-950.69
2019-02-16T04:40:13.826Z,-952.91
2019-02-16T04:41:14.284Z,-951.49
2019-02-16T04:42:14.268Z,-952.29
2019-02-16T04:43:14.494Z,-954.13
2019-02-16T04:44:14.740Z,-951.38
2019-02-16T04:45:14.947Z,-949.91
2019-02-16T04:46:15.188Z,-946.88
2019-02-16T04:47:15.468Z,-949.03
2019-02-16T04:48:15.627Z,-953.74
2019-02-16T04:49:15.897Z,-949.33
2019-02-16T04:50:16.420Z,-953.41
2019-02-16T04:51:16.335Z,-948.95
2019-02-16T04:52:16.534Z,-950.84
2019-02-16T04:53:16.778Z,-953.11
2019-02-16T04:54:17.029Z,-955.94
2019-02-16T04:55:17.275Z,-945.39
2019-02-16T04:56:17.561Z,-952.19
2019-02-16T04:57:17.719Z,-957.00
2019-02-16T04:58:17.969Z,-949.93
2019-02-16T04:59:18.213Z,-951.43
2019-02-16T05:00:18.475Z,-953.57
2019-02-16T05:01:18.681Z,-952.52
2019-02-16T05:02:18.887Z,-952.93
2019-02-16T05:03:19.129Z,-953.06
2019-02-16T05:04:19.492Z,-945.94
2019-02-16T05:05:19.581Z,-950.99
2019-02-16T05:06:19.846Z,-957.15
2019-02-16T05:07:20.041Z,-952.78
2019-02-16T05:08:20.271Z,-956.70
2019-02-16T05:09:20.522Z,-951.92
2019-02-16T05:10:20.732Z,-948.99
2019-02-16T05:11:20.983Z,-955.68
2019-02-16T05:12:21.286Z,-959.12
2019-02-16T05:13:21.398Z,-949.50
2019-02-16T05:14:21.667Z,-959.36
2019-02-16T05:15:21.885Z,-953.78
2019-02-16T05:16:22.140Z,-955.60
2019-02-16T05:17:22.350Z,-948.64
2019-02-16T05:18:22.579Z,-952.64
2019-02-16T05:19:22.814Z,-952.84
2019-02-16T05:20:23.106Z,-955.02
2019-02-16T05:21:23.287Z,-958.46
2019-02-16T05:22:23.480Z,-951.35
2019-02-16T05:23:23.743Z,-956.25
2019-02-16T05:24:23.953Z,-956.03
2019-02-16T05:25:24.163Z,-956.43
2019-02-16T05:26:24.531Z,-954.13
2019-02-16T05:27:24.640Z,-958.62
2019-02-16T05:28:24.921Z,-959.20
2019-02-16T05:29:25.102Z,-950.14
2019-02-16T05:30:25.304Z,-957.14
2019-02-16T05:31:25.579Z,-956.18
2019-02-16T05:32:25.808Z,-958.41
2019-02-16T05:33:26.027Z,-957.27
2019-02-16T05:34:26.280Z,-951.71
2019-02-16T05:35:26.489Z,-953.37
2019-02-16T05:36:26.769Z,-957.35
2019-02-16T05:37:27.010Z,-953.93
2019-02-16T05:38:27.210Z,-956.58
2019-02-16T05:39:27.457Z,-950.34
2019-02-16T05:40:27.667Z,-958.69
2019-02-16T05:41:27.899Z,-957.49
2019-02-16T05:42:28.132Z,-952.75
2019-02-16T05:43:28.392Z,-955.88
2019-02-16T05:44:28.641Z,-957.00
2019-02-16T05:45:28.970Z,-958.00
2019-02-16T05:46:29.057Z,-955.25
2019-02-16T05:47:29.327Z,-953.57
2019-02-16T05:48:29.530Z,-956.31
2019-02-16T05:49:29.778Z,-956.67
2019-02-16T05:50:29.984Z,-954.27
2019-02-16T05:51:30.224Z,-950.53
2019-02-16T05:52:30.467Z,-954.12
2019-02-16T05:53:30.827Z,-957.06
2019-02-16T05:54:30.942Z,-959.08
2019-02-16T05:55:31.160Z,-963.39
2019-02-16T05:56:31.471Z,-955.96
2019-02-16T05:57:31.659Z,-957.30
2019-02-16T05:58:31.851Z,-956.37
2019-02-16T05:59:32.115Z,-954.43
2019-02-16T06:00:32.332Z,-956.66
2019-02-16T06:01:32.601Z,-959.90
2019-02-16T06:02:32.795Z,-960.75
2019-02-16T06:03:32.991Z,-956.39
2019-02-16T06:04:33.255Z,-956.57
2019-02-16T06:05:33.485Z,-959.38
2019-02-16T06:06:33.721Z,-954.80
2019-02-16T06:07:33.980Z,-958.86
2019-02-16T06:08:34.184Z,-960.90
2019-02-16T06:09:34.502Z,-960.08
2019-02-16T06:10:34.614Z,-959.35
2019-02-16T06:11:34.851Z,-956.53
2019-02-16T06:12:35.109Z,-955.43
2019-02-16T06:13:35.325Z,-958.78
2019-02-16T06:14:35.571Z,-961.88
2019-02-16T06:15:35.771Z,-958.79
2019-02-16T06:16:36.015Z,-960.91
2019-02-16T06:17:36.308Z,-956.04
2019-02-16T06:18:36.837Z,-957.95
2019-02-16T06:19:36.738Z,-953.53
2019-02-16T06:20:36.936Z,-960.22
2019-02-16T06:21:37.173Z,-956.09
2019-02-16T06:22:37.438Z,-953.80
2019-02-16T06:23:37.659Z,-953.49
2019-02-16T06:24:37.891Z,-958.89
2019-02-16T06:25:38.120Z,-957.35
2019-02-16T06:26:38.464Z,-952.83
2019-02-16T06:27:38.589Z,-955.69
2019-02-16T06:28:38.813Z,-957.16
2019-02-16T06:29:39.044Z,-953.05
2019-02-16T06:30:39.257Z,-956.84
2019-02-16T06:31:39.476Z,-950.74
2019-02-16T06:32:39.726Z,-953.06
2019-02-16T06:33:39.965Z,-955.02
2019-02-16T06:34:40.330Z,-951.04
2019-02-16T06:35:40.401Z,-951.05
2019-02-16T06:36:40.639Z,-956.62
2019-02-16T06:37:40.872Z,-959.75
2019-02-16T06:38:41.102Z,-958.93
2019-02-16T06:39:41.332Z,-958.95
2019-02-16T06:40:41.564Z,-951.36
2019-02-16T06:41:41.795Z,-956.80
2019-02-16T06:42:42.070Z,-948.62
2019-02-16T06:43:42.235Z,-955.59
2019-02-16T06:44:42.477Z,-950.99
2019-02-16T06:45:42.729Z,-953.07
2019-02-16T06:46:42.953Z,-955.22
2019-02-16T06:47:43.203Z,-953.58
2019-02-16T06:48:43.433Z,-954.10
2019-02-16T06:49:43.626Z,-954.07
2019-02-16T06:50:43.928Z,-957.40
2019-02-16T06:51:44.139Z,-957.25
2019-02-16T06:52:44.376Z,-954.14
2019-02-16T06:53:44.581Z,-961.53
2019-02-16T06:54:44.816Z,-958.41
2019-02-16T06:55:45.047Z,-957.25
2019-02-16T06:56:45.269Z,-961.93
2019-02-16T06:57:45.498Z,-958.09
2019-02-16T06:58:45.777Z,-960.50
2019-02-16T06:59:46.078Z,-958.79
2019-02-16T07:00:46.258Z,-956.54
2019-02-16T07:01:46.469Z,-957.81
2019-02-16T07:02:46.717Z,-958.50
2019-02-16T07:03:46.957Z,-957.03
2019-02-16T07:04:47.145Z,-967.80
2019-02-16T07:05:47.404Z,-964.27
2019-02-16T07:06:47.622Z,-956.41
2019-02-16T07:07:47.981Z,-958.68
2019-02-16T07:08:48.107Z,-958.01
2019-02-16T07:09:48.292Z,-958.69
2019-02-16T07:10:48.547Z,-960.68
2019-02-16T07:11:48.766Z,-958.73
2019-02-16T07:12:49.036Z,-959.08
2019-02-16T07:13:49.231Z,-954.84
2019-02-16T07:14:49.469Z,-956.62
2019-02-16T07:15:49.760Z,-944.48
2019-02-16T07:16:49.910Z,-942.05
2019-02-16T07:17:50.157Z,-941.34
2019-02-16T07:18:50.371Z,-939.32
2019-02-16T07:19:50.608Z,-947.90
2019-02-16T07:20:50.822Z,-949.93
2019-02-16T07:21:51.034Z,-946.93
2019-02-16T07:22:51.310Z,-945.74
2019-02-16T07:23:51.554Z,-950.91
2019-02-16T07:24:51.750Z,-954.17
2019-02-16T07:25:51.986Z,-946.68
2019-02-16T07:26:52.186Z,-956.99
2019-02-16T07:27:52.445Z,-954.95
2019-02-16T07:28:52.670Z,-950.94
2019-02-16T07:29:52.911Z,-950.16
2019-02-16T07:30:53.150Z,-949.22
2019-02-16T07:31:53.415Z,-948.45
2019-02-16T07:32:53.612Z,-950.84
2019-02-16T07:33:53.826Z,-952.93
2019-02-16T07:34:54.088Z,-946.20
2019-02-16T07:35:54.314Z,-947.42
2019-02-16T07:36:54.528Z,-948.74
2019-02-16T07:37:54.770Z,-949.53
2019-02-16T07:38:54.967Z,-951.33
2019-02-16T07:39:55.263Z,-949.99
2019-02-16T07:40:55.585Z,-953.55
2019-02-16T07:41:57.236Z,-954.05
2019-02-16T07:42:55.980Z,-950.21
2019-02-16T07:43:56.110Z,-952.67
2019-02-16T07:44:56.376Z,-948.28
2019-02-16T07:45:56.620Z,-950.06
2019-02-16T07:46:56.826Z,-949.44
2019-02-16T07:47:57.056Z,-951.19
2019-02-16T07:48:57.405Z,-951.09
2019-02-16T07:49:57.530Z,-948.90
2019-02-16T07:50:57.771Z,-945.57
2019-02-16T07:51:57.992Z,-951.93
2019-02-16T07:52:58.220Z,-949.31
2019-02-16T07:53:58.424Z,-954.18
2019-02-16T07:54:58.726Z,-949.40
2019-02-16T07:55:58.929Z,-943.07
2019-02-16T07:56:59.186Z,-948.76
2019-02-16T07:57:59.361Z,-951.05
2019-02-16T07:58:59.592Z,-951.97
2019-02-16T08:00:00.234Z,-950.71
2019-02-16T08:01:00.333Z,-951.08
2019-02-16T08:02:00.543Z,-949.85
2019-02-16T08:03:00.771Z,-950.32
2019-02-16T08:04:01.021Z,-950.38
2019-02-16T08:05:01.296Z,-947.89
2019-02-16T08:06:01.447Z,-946.12
2019-02-16T08:07:01.684Z,-950.01
2019-02-16T08:08:01.918Z,-944.55
2019-02-16T08:09:02.158Z,-949.76
2019-02-16T08:10:02.546Z,-949.65
2019-02-16T08:11:02.618Z,-951.21
2019-02-16T08:12:02.815Z,-945.20
2019-02-16T08:13:03.141Z,-947.74
2019-02-16T08:14:03.428Z,-945.97
2019-02-16T08:15:03.568Z,-945.83
2019-02-16T08:16:03.774Z,-936.30
2019-02-16T08:17:03.969Z,-944.78
2019-02-16T08:18:04.211Z,-940.81
2019-02-16T08:19:04.476Z,-939.89
2019-02-16T08:20:04.724Z,-952.07
2019-02-16T08:21:04.949Z,-946.60
2019-02-16T08:22:05.246Z,-943.35
2019-02-16T08:23:05.374Z,-941.98
2019-02-16T08:24:05.642Z,-942.85
2019-02-16T08:25:05.841Z,-945.03
2019-02-16T08:26:06.074Z,-940.21
2019-02-16T08:27:06.295Z,-939.70
2019-02-16T08:28:06.515Z,-943.53
2019-02-16T08:29:06.765Z,-938.71
2019-02-16T08:30:07.297Z,-943.72
2019-02-16T08:31:07.272Z,-946.70
2019-02-16T08:32:07.421Z,-936.81
2019-02-16T08:33:07.661Z,-937.34
2019-02-16T08:34:07.917Z,-935.44
2019-02-16T08:35:08.152Z,-939.40
2019-02-16T08:36:08.383Z,-937.52
2019-02-16T08:37:08.599Z,-945.33
2019-02-16T08:38:08.877Z,-939.83
2019-02-16T08:39:09.040Z,-941.53
2019-02-16T08:40:09.297Z,-942.13
2019-02-16T08:41:09.519Z,-944.40
2019-02-16T08:42:09.750Z,-938.80
2019-02-16T08:43:09.961Z,-941.06
2019-02-16T08:44:10.194Z,-940.05
2019-02-16T08:45:10.472Z,-941.21
2019-02-16T08:46:10.739Z,-937.76
2019-02-16T08:47:10.876Z,-940.08
2019-02-16T08:48:11.118Z,-941.06
2019-02-16T08:49:11.357Z,-940.84
2019-02-16T08:50:11.606Z,-937.89
2019-02-16T08:51:11.822Z,-944.03
2019-02-16T08:52:12.047Z,-938.06
2019-02-16T08:53:12.275Z,-941.99
2019-02-16T08:54:12.594Z,-940.30
2019-02-16T08:55:12.762Z,-942.11
2019-02-16T08:56:12.987Z,-941.31
2019-02-16T08:57:13.199Z,-938.35
2019-02-16T08:58:13.430Z,-940.73
2019-02-16T08:59:13.677Z,-935.61
2019-02-16T09:00:13.921Z,-941.81
2019-02-16T09:01:14.105Z,-939.47
2019-02-16T09:02:14.346Z,-941.55
2019-02-16T09:03:14.668Z,-934.19
2019-02-16T09:04:14.826Z,-938.16
2019-02-16T09:05:15.099Z,-934.50
2019-02-16T09:06:15.251Z,-941.40
2019-02-16T09:07:15.527Z,-934.89
2019-02-16T09:08:15.752Z,-937.97
2019-02-16T09:09:15.995Z,-942.43
2019-02-16T09:10:16.235Z,-932.34
2019-02-16T09:11:16.557Z,-935.86
2019-02-16T09:12:16.720Z,-936.31
2019-02-16T09:13:16.950Z,-940.69
2019-02-16T09:14:17.199Z,-941.66
2019-02-16T09:15:17.540Z,-944.05
2019-02-16T09:16:17.642Z,-943.18
2019-02-16T09:17:17.873Z,-941.74
2019-02-16T09:18:18.118Z,-885.59
2019-02-16T09:19:18.446Z,-893.45
2019-02-16T09:20:18.858Z,-893.67
2019-02-16T09:21:18.794Z,-890.86
2019-02-16T09:22:19.027Z,-883.63
2019-02-16T09:23:19.240Z,-888.67
2019-02-16T09:24:19.499Z,-894.43
2019-02-16T09:25:19.760Z,-891.10
2019-02-16T09:26:19.941Z,-891.70
2019-02-16T09:27:20.234Z,-895.66
2019-02-16T09:28:20.368Z,-907.08
2019-02-16T09:29:20.635Z,-895.90
2019-02-16T09:30:20.889Z,-902.36
2019-02-16T09:31:21.097Z,-894.25
2019-02-16T09:32:21.350Z,-900.36
2019-02-16T09:33:21.564Z,-902.46
2019-02-16T09:34:21.813Z,-900.78
2019-02-16T09:35:22.056Z,-908.79
2019-02-16T09:36:22.288Z,-891.92
2019-02-16T09:37:22.501Z,-892.22
2019-02-16T09:38:22.714Z,-881.35
2019-02-16T09:39:23.231Z,-886.43
2019-02-16T09:40:23.220Z,-885.72
2019-02-16T09:41:23.409Z,-892.39
2019-02-16T09:42:23.648Z,-895.15
2019-02-16T09:43:23.875Z,-895.98
2019-02-16T09:44:24.250Z,-897.85
2019-02-16T09:45:24.323Z,-890.89
2019-02-16T09:46:24.558Z,-893.81
2019-02-16T09:47:24.803Z,-890.64
2019-02-16T09:48:25.009Z,-898.92
2019-02-16T09:49:25.261Z,-899.25
2019-02-16T09:50:25.534Z,-889.68
2019-02-16T09:51:25.686Z,-892.51
2019-02-16T09:52:26.059Z,-893.70
2019-02-16T09:53:26.154Z,-902.00
2019-02-16T09:54:26.410Z,-898.49
2019-02-16T09:55:26.663Z,-894.17
2019-02-16T09:56:26.829Z,-893.34
2019-02-16T09:57:27.092Z,-894.59
2019-02-16T09:58:27.305Z,-895.42
2019-02-16T09:59:27.553Z,-899.67
2019-02-16T10:00:27.853Z,-899.10
2019-02-16T10:01:27.981Z,-901.79
2019-02-16T10:02:28.213Z,-897.85
2019-02-16T10:03:28.435Z,-892.26
2019-02-16T10:04:28.692Z,-900.31
2019-02-16T10:05:28.939Z,-898.36
2019-02-16T10:06:29.137Z,-902.55
2019-02-16T10:07:30.338Z,-895.42
2019-02-16T10:08:29.614Z,-902.12
2019-02-16T10:09:29.819Z,-898.43
2019-02-16T10:10:30.095Z,-903.92
2019-02-16T10:11:30.281Z,-895.82
2019-02-16T10:12:30.528Z,-897.56
2019-02-16T10:13:30.740Z,-893.72
2019-02-16T10:14:30.975Z,-884.51
2019-02-16T10:15:31.245Z,-893.14
2019-02-16T10:16:31.453Z,-897.11
2019-02-16T10:17:31.772Z,-888.81
2019-02-16T10:18:31.871Z,-879.94
2019-02-16T10:19:32.108Z,-887.53
2019-02-16T10:20:32.374Z,-894.41
2019-02-16T10:21:32.585Z,-896.78
2019-02-16T10:22:32.831Z,-892.46
2019-02-16T10:23:33.043Z,-888.77
2019-02-16T10:24:33.277Z,-886.18
2019-02-16T10:25:33.704Z,-896.85
2019-02-16T10:26:33.747Z,-886.41
2019-02-16T10:27:33.983Z,-885.32
2019-02-16T10:28:34.199Z,-887.36
2019-02-16T10:29:34.433Z,-884.54
2019-02-16T10:30:34.861Z,-894.06
2019-02-16T10:31:34.920Z,-893.98
2019-02-16T10:32:35.159Z,-894.25
2019-02-16T10:33:35.460Z,-893.54
2019-02-16T10:34:35.589Z,-898.64
2019-02-16T10:35:36.635Z,-895.36
2019-02-16T10:36:36.069Z,-893.55
2019-02-16T10:37:36.337Z,-895.73
2019-02-16T10:38:36.537Z,-893.06
2019-02-16T10:39:36.788Z,-889.32
2019-02-16T10:40:37.044Z,-899.91
2019-02-16T10:41:37.250Z,-892.68
2019-02-16T10:42:37.465Z,-897.36
2019-02-16T10:43:37.684Z,-881.86
2019-02-16T10:44:37.914Z,-900.85
2019-02-16T10:45:38.170Z,-896.88
2019-02-16T10:46:38.378Z,-890.17
2019-02-16T10:47:38.602Z,-901.79
2019-02-16T10:48:38.835Z,-900.57
2019-02-16T10:49:39.122Z,-895.57
2019-02-16T10:50:39.339Z,-898.36
2019-02-16T10:51:39.622Z,-901.80
2019-02-16T10:52:39.779Z,-912.63
2019-02-16T10:53:39.989Z,-905.11
2019-02-16T10:54:40.255Z,-911.09
2019-02-16T10:55:40.488Z,-887.44
2019-02-16T10:56:40.701Z,-895.82
2019-02-16T10:57:40.964Z,-894.69
2019-02-16T10:58:41.281Z,-904.26
2019-02-16T10:59:41.412Z,-900.41
2019-02-16T11:00:41.669Z,-915.30
2019-02-16T11:01:41.881Z,-907.48
2019-02-16T11:02:42.125Z,-904.54
2019-02-16T11:03:42.317Z,-901.72
2019-02-16T11:04:42.550Z,-901.89
2019-02-16T11:05:42.805Z,-898.95
2019-02-16T11:06:43.153Z,-902.24
2019-02-16T11:07:43.273Z,-914.16
2019-02-16T11:08:43.475Z,-898.64
2019-02-16T11:09:43.721Z,-893.30
2019-02-16T11:10:43.967Z,-891.59
2019-02-16T11:11:45.461Z,-897.02
2019-02-16T11:12:44.433Z,-890.18
2019-02-16T11:13:44.640Z,-896.32
2019-02-16T11:14:44.899Z,-909.07
2019-02-16T11:15:45.101Z,-890.37
2019-02-16T11:16:45.364Z,-888.64
2019-02-16T11:17:45.795Z,-886.14
2019-02-16T11:18:45.778Z,-913.05
2019-02-16T11:19:46.010Z,-895.79
2019-02-16T11:20:46.243Z,-901.09
2019-02-16T11:21:46.479Z,-903.01
2019-02-16T11:22:46.785Z,-904.76
2019-02-16T11:23:46.931Z,-905.19
2019-02-16T11:24:47.158Z,-919.46
2019-02-16T11:25:47.408Z,-931.66
2019-02-16T11:26:47.633Z,-900.63
2019-02-16T11:27:47.878Z,-889.53
2019-02-16T11:28:48.083Z,-897.87
2019-02-16T11:29:48.322Z,-893.17
2019-02-16T11:30:48.637Z,-892.78
2019-02-16T11:31:48.828Z,-888.23
2019-02-16T11:32:49.040Z,-886.48
2019-02-16T11:33:49.239Z,-886.35
2019-02-16T11:34:49.470Z,-874.74
2019-02-16T11:35:49.718Z,-835.75
2019-02-16T11:36:49.929Z,-839.58
2019-02-16T11:37:50.157Z,-865.38
2019-02-16T11:38:50.392Z,-875.80
2019-02-16T11:39:50.735Z,-867.31
2019-02-16T11:40:50.873Z,-860.92
2019-02-16T11:41:51.089Z,-863.48
2019-02-16T11:42:51.311Z,-889.09
2019-02-16T11:43:51.559Z,-882.60
2019-02-16T11:44:51.792Z,-883.77
2019-02-16T11:45:52.044Z,-893.88
2019-02-16T11:46:52.261Z,-893.43
2019-02-16T11:47:52.586Z,-893.01
2019-02-16T11:48:52.725Z,-889.13
2019-02-16T11:49:52.960Z,-885.98
2019-02-16T11:50:53.210Z,-894.41
2019-02-16T11:51:53.419Z,-887.39
2019-02-16T11:52:53.674Z,-896.34
2019-02-16T11:53:53.874Z,-889.28
2019-02-16T11:54:54.128Z,-903.33
2019-02-16T11:55:54.452Z,-896.54
2019-02-16T11:56:54.589Z,-891.90
2019-02-16T11:57:54.825Z,-889.20
2019-02-16T11:58:55.075Z,-884.64
2019-02-16T11:59:55.269Z,-877.60
2019-02-16T12:00:55.539Z,-881.98
2019-02-16T12:01:55.748Z,-888.76
2019-02-16T12:02:56.056Z,-878.54
2019-02-16T12:03:56.257Z,-887.07
2019-02-16T12:04:56.440Z,-887.46
2019-02-16T12:05:56.685Z,-904.70
2019-02-16T12:06:56.908Z,-882.14
2019-02-16T12:07:57.168Z,-883.25